Mönchengladbach Airport EDLN

Flugplatz Daten

Name: Mönchengladbach Airport

Ident: EDLN

Lat: 51,23027802

Long: 6,504444122

Platzhöhe: 125 ft

IataCode: MGL

City: Mönchengladbach

Metar

2021/10/25 23:20
EDLN 252320Z AUTO 22003KT 170V240 9999 // BKN019/// 11/10 Q1018

Taf

Gewünschte Webcam nicht vorhanden? Dann fügen Sie eine hinzu. Sie wird dann so schnell wie möglich freigeschaltet
Url: Title: